Time;durP1;ratioP1;P1;durP2;ratioP2;P2;SDS_P1;SDS_P2;PMS_P1;PMS_P2;Temp;Humidity;BMP_temperature;BMP_pressure;BME280_temperature;BME280_humidity;BME280_pressure;Samples;Min_cycle;Max_cycle;Signal;HPM_P1;HPM_P2
2021/05/19 00:02:06;;;;;;;7.80;6.20;;;;;;;14.46;88.02;98890.53;1693643;83;21923;-80
2021/05/19 00:04:33;;;;;;;7.10;6.10;;;;;;;14.49;88.14;98888.55;1695932;83;22349;-77
2021/05/19 00:07:00;;;;;;;7.20;6.50;;;;;;;14.47;88.08;98886.73;1696081;82;21765;-75
2021/05/19 00:09:27;;;;;;;10.17;6.70;;;;;;;14.44;88.12;98882.78;1697749;83;21845;-74
2021/05/19 00:11:53;;;;;;;7.03;5.90;;;;;;;14.44;88.19;98880.66;1689701;83;21796;-75
2021/05/19 00:14:20;;;;;;;8.07;6.90;;;;;;;14.41;88.18;98883.98;1698710;83;21793;-77
2021/05/19 00:16:48;;;;;;;8.77;7.00;;;;;;;14.39;88.12;98882.98;1697148;84;21842;-77
2021/05/19 00:19:17;;;;;;;9.13;6.50;;;;;;;14.40;88.21;98875.70;1696593;82;21849;-75
2021/05/19 00:21:43;;;;;;;9.77;6.70;;;;;;;14.40;88.20;98876.48;1698463;84;21769;-76
2021/05/19 00:24:11;;;;;;;9.60;6.43;;;;;;;14.39;87.93;98878.17;1692353;84;22388;-74
2021/05/19 00:26:38;;;;;;;7.43;6.10;;;;;;;14.32;88.34;98875.98;1695368;83;22516;-76
2021/05/19 00:29:09;;;;;;;7.97;6.57;;;;;;;14.29;87.86;98878.75;1696625;82;21835;-76
2021/05/19 00:31:35;;;;;;;8.37;6.67;;;;;;;14.26;88.05;98878.61;1695048;82;22433;-73
2021/05/19 00:34:02;;;;;;;8.53;6.60;;;;;;;14.28;88.05;98882.55;1674017;83;21843;-76
2021/05/19 00:36:29;;;;;;;6.73;6.03;;;;;;;14.31;88.24;98874.39;1696625;82;21764;-75
2021/05/19 00:38:57;;;;;;;8.23;6.67;;;;;;;14.30;88.23;98872.82;1692372;82;21880;-81
2021/05/19 00:41:24;;;;;;;7.67;6.80;;;;;;;14.21;88.24;98870.16;1698908;83;22266;-79
2021/05/19 00:43:52;;;;;;;9.10;6.73;;;;;;;14.11;88.41;98871.86;1699832;83;21824;-79
2021/05/19 00:46:19;;;;;;;7.57;6.83;;;;;;;14.06;88.61;98875.52;1700378;83;21812;-76
2021/05/19 00:48:46;;;;;;;7.60;6.80;;;;;;;13.99;88.84;98872.55;1696849;82;21838;-76
2021/05/19 00:51:13;;;;;;;8.33;7.27;;;;;;;13.93;89.03;98873.04;1695780;82;22331;-76
2021/05/19 00:53:41;;;;;;;7.50;6.73;;;;;;;13.89;89.25;98865.40;1700652;83;22412;-76
2021/05/19 00:56:08;;;;;;;9.03;7.43;;;;;;;13.90;89.43;98868.31;1697088;83;21800;-75
2021/05/19 00:58:35;;;;;;;7.93;7.13;;;;;;;13.92;89.89;98862.05;1697190;82;21775;-74
2021/05/19 01:01:02;;;;;;;7.73;6.93;;;;;;;13.92;89.89;98862.05;1695705;83;22263;-73
2021/05/19 01:03:35;;;;;;;8.33;7.43;;;;;;;13.92;89.77;98857.49;1665139;84;22461;-74
2021/05/19 01:06:06;;;;;;;8.40;7.60;;;;;;;13.97;89.86;98864.57;1677404;84;21928;-73
2021/05/19 01:11:19;;;;;;;8.90;8.00;;;;;;;13.93;90.03;98867.67;1695539;83;21092;-74
2021/05/19 01:13:46;;;;;;;8.33;7.53;;;;;;;13.95;90.12;98865.44;1695832;82;21849;-73
2021/05/19 01:16:15;;;;;;;10.80;8.20;;;;;;;13.95;90.22;98870.27;1689508;84;21726;-73
2021/05/19 01:18:43;;;;;;;10.63;8.17;;;;;;;13.99;90.25;98875.79;1696343;83;21816;-72
2021/05/19 01:21:11;;;;;;;9.57;8.57;;;;;;;13.97;90.25;98879.34;1693321;83;22215;-73
2021/05/19 01:23:38;;;;;;;10.40;9.13;;;;;;;13.90;90.33;98874.45;1697778;83;21812;-74
2021/05/19 01:26:07;;;;;;;11.60;9.33;;;;;;;13.87;90.77;98887.73;1692702;82;21756;-75
2021/05/19 01:28:35;;;;;;;10.73;9.73;;;;;;;13.87;90.77;98887.73;1696838;82;21794;-74
2021/05/19 01:31:03;;;;;;;13.33;10.33;;;;;;;13.81;90.91;98883.86;1687196;82;21930;-74
2021/05/19 01:33:32;;;;;;;12.70;11.50;;;;;;;13.83;91.25;98885.69;1694093;83;21786;-82
2021/05/19 01:35:59;;;;;;;13.83;12.47;;;;;;;13.85;91.45;98881.33;1699641;84;21905;-75
2021/05/19 01:38:26;;;;;;;15.10;13.50;;;;;;;13.87;91.56;98882.36;1701772;83;21946;-76
2021/05/19 01:40:56;;;;;;;15.60;13.87;;;;;;;13.88;91.84;98877.22;1694243;82;21833;-72
2021/05/19 01:43:34;;;;;;;15.63;14.03;;;;;;;13.89;92.02;98875.58;1697286;84;21791;-78
2021/05/19 01:46:03;;;;;;;16.50;14.23;;;;;;;13.93;92.14;98877.06;1699191;83;21869;-70
2021/05/19 01:48:32;;;;;;;18.03;16.13;;;;;;;13.96;92.21;98877.21;1696435;82;23152;-70
2021/05/19 01:50:58;;;;;;;17.93;15.03;;;;;;;13.96;92.27;98879.11;1696694;82;21774;-69
2021/05/19 01:53:26;;;;;;;17.70;15.60;;;;;;;13.99;92.31;98882.50;1696789;82;22560;-70
2021/05/19 01:55:54;;;;;;;17.63;15.83;;;;;;;14.02;92.34;98888.57;1699771;83;22395;-70
2021/05/19 01:58:21;;;;;;;17.10;15.30;;;;;;;14.06;92.33;98880.11;1695877;82;22388;-68
2021/05/19 02:00:47;;;;;;;19.23;17.13;;;;;;;14.14;92.36;98875.25;1694467;83;21875;-68
2021/05/19 02:03:17;;;;;;;20.93;16.23;;;;;;;14.16;92.37;98875.72;1699660;83;21792;-70
2021/05/19 02:05:58;;;;;;;18.60;16.60;;;;;;;14.19;92.39;98874.30;1666849;83;21878;-71
2021/05/19 02:08:27;;;;;;;22.17;18.50;;;;;;;14.23;92.38;98868.52;1698052;84;21772;-76
2021/05/19 02:10:55;;;;;;;18.67;16.67;;;;;;;14.26;92.28;98880.73;1697187;83;21903;-77
2021/05/19 02:13:23;;;;;;;17.80;15.90;;;;;;;14.30;92.22;98885.69;1698995;84;21779;-75
2021/05/19 02:15:51;;;;;;;19.27;16.83;;;;;;;14.31;92.03;98888.63;1691300;84;22665;-75
2021/05/19 02:18:20;;;;;;;18.43;16.63;;;;;;;14.31;92.01;98898.56;1700181;83;21784;-76
2021/05/19 02:20:48;;;;;;;18.10;16.20;;;;;;;14.29;91.86;98902.92;1668676;85;21850;-75
2021/05/19 02:23:15;;;;;;;18.00;16.10;;;;;;;14.22;91.83;98901.86;1662648;85;21774;-75
2021/05/19 02:25:42;;;;;;;20.27;17.20;;;;;;;14.18;91.93;98900.37;1654161;85;21827;-74
2021/05/19 02:28:09;;;;;;;19.23;17.27;;;;;;;14.16;92.05;98905.82;1658975;84;23128;-73
2021/05/19 02:30:37;;;;;;;20.17;18.17;;;;;;;14.14;92.13;98916.08;1696315;83;22330;-74
2021/05/19 02:33:08;;;;;;;21.00;18.70;;;;;;;14.12;92.27;98909.70;1696241;83;21819;-74
2021/05/19 02:35:37;;;;;;;19.92;17.82;;;;;;;14.12;92.40;98910.27;1677473;84;22220;-73
2021/05/19 02:38:03;;;;;;;21.07;18.97;;;;;;;14.12;92.53;98913.73;1691436;82;21121;-74
2021/05/19 02:40:31;;;;;;;21.40;19.07;;;;;;;14.12;92.59;98910.27;1696952;82;21718;-73
2021/05/19 02:42:58;;;;;;;22.33;18.73;;;;;;;14.12;92.74;98911.05;1699623;82;21788;-74
2021/05/19 02:45:28;;;;;;;19.73;17.67;;;;;;;14.14;92.82;98908.80;1703000;84;21789;-73
2021/05/19 02:47:56;;;;;;;21.80;19.40;;;;;;;14.17;92.94;98911.41;1698125;83;21795;-73
2021/05/19 02:50:23;;;;;;;22.53;20.07;;;;;;;14.19;92.94;98917.27;1693798;82;21884;-72
2021/05/19 02:52:50;;;;;;;22.30;19.57;;;;;;;14.19;92.99;98920.73;1698512;83;21810;-74
2021/05/19 02:55:17;;;;;;;21.33;18.77;;;;;;;14.21;93.02;98919.84;1701590;84;21712;-73
2021/05/19 02:57:44;;;;;;;21.57;19.40;;;;;;;14.24;93.12;98913.05;1698038;84;21812;-74
2021/05/19 03:00:12;;;;;;;23.60;19.57;;;;;;;14.30;93.18;98911.77;1694421;83;22413;-73
2021/05/19 03:02:39;;;;;;;23.43;18.83;;;;;;;14.33;93.16;98921.08;1699780;82;21818;-74
2021/05/19 03:05:07;;;;;;;19.77;17.73;;;;;;;14.35;93.13;98914.84;1701012;84;21806;-74
2021/05/19 03:07:34;;;;;;;21.70;19.07;;;;;;;14.36;93.18;98911.83;1702151;83;22040;-74
2021/05/19 03:10:01;;;;;;;22.47;19.67;;;;;;;14.41;93.21;98906.81;1692064;82;21812;-74
2021/05/19 03:12:27;;;;;;;21.67;19.37;;;;;;;14.44;93.22;98903.48;1701812;84;21762;-73
2021/05/19 03:14:56;;;;;;;22.00;19.60;;;;;;;14.53;93.26;98901.59;1703121;84;21788;-74
2021/05/19 03:17:23;;;;;;;20.77;18.67;;;;;;;14.67;93.21;98904.05;1701143;83;21778;-75
2021/05/19 03:32:01;;;;;;;20.00;18.00;;;;;;;15.41;91.09;98916.06;1825694;77;23282;-70
2021/05/19 03:34:29;;;;;;;20.10;18.00;;;;;;;15.33;90.69;98924.42;1793929;79;21110;-70
2021/05/19 03:36:57;;;;;;;20.63;17.17;;;;;;;15.24;90.44;98932.56;1784499;79;21130;-70
2021/05/19 03:39:24;;;;;;;20.10;17.97;;;;;;;15.17;90.30;98935.55;1792998;79;21042;-70
2021/05/19 03:41:52;;;;;;;19.10;17.07;;;;;;;15.11;90.29;98934.95;1798954;77;20956;-70
2021/05/19 03:44:19;;;;;;;18.77;16.77;;;;;;;15.06;90.27;98935.13;1789158;79;20912;-69
2021/05/19 03:46:47;;;;;;;18.07;16.23;;;;;;;15.00;90.30;98931.86;1801202;79;21009;-70
2021/05/19 03:49:15;;;;;;;18.20;16.30;;;;;;;14.92;90.27;98925.97;1807258;77;21874;-70
2021/05/19 03:51:43;;;;;;;18.63;16.70;;;;;;;14.84;90.37;98924.66;1792535;77;20917;-69
2021/05/19 03:54:09;;;;;;;16.57;14.80;;;;;;;14.86;90.55;98926.48;1800783;79;21400;-70
2021/05/19 03:56:36;;;;;;;16.87;14.97;;;;;;;14.94;90.61;98935.06;1789391;79;21043;-70
2021/05/19 03:59:03;;;;;;;17.57;15.67;;;;;;;14.94;90.60;98933.72;1790931;79;21580;-70
2021/05/19 04:01:31;;;;;;;18.10;16.20;;;;;;;14.96;90.67;98932.83;1808459;79;21083;-69
2021/05/19 04:03:58;;;;;;;17.27;15.47;;;;;;;14.97;90.71;98930.36;1789013;79;21140;-70
2021/05/19 04:06:25;;;;;;;17.13;15.43;;;;;;;15.00;90.76;98939.93;1812765;79;21028;-70
2021/05/19 04:08:53;;;;;;;18.07;15.30;;;;;;;15.04;90.78;98929.84;1807819;79;21609;-69
2021/05/19 04:11:19;;;;;;;17.30;15.60;;;;;;;15.14;90.97;98937.55;1793703;77;21166;-69
2021/05/19 04:13:46;;;;;;;17.43;15.73;;;;;;;15.25;90.94;98935.48;1788492;79;21530;-69
2021/05/19 04:16:13;;;;;;;16.43;14.67;;;;;;;15.37;90.80;98938.02;1788645;79;21172;-69
2021/05/19 04:18:39;;;;;;;16.53;14.80;;;;;;;15.50;90.70;98935.63;1789372;79;21689;-69
2021/05/19 04:21:06;;;;;;;15.30;13.77;;;;;;;15.63;90.37;98939.95;1784380;79;21110;-69
2021/05/19 04:23:35;;;;;;;17.47;15.73;;;;;;;15.74;89.90;98932.84;1798855;79;21063;-69
2021/05/19 04:26:02;;;;;;;18.13;15.17;;;;;;;15.81;89.43;98935.22;1796947;79;21120;-68
2021/05/19 04:28:30;;;;;;;15.50;13.93;;;;;;;15.82;89.06;98931.39;1813507;79;20960;-70
2021/05/19 04:30:57;;;;;;;15.40;13.80;;;;;;;15.80;88.76;98939.03;1792267;79;20936;-70
2021/05/19 04:33:24;;;;;;;15.30;13.70;;;;;;;15.82;88.65;98935.44;1797732;79;21000;-68
2021/05/19 04:35:51;;;;;;;15.83;14.23;;;;;;;15.85;88.29;98932.64;1809134;79;21004;-70
2021/05/19 04:38:17;;;;;;;14.63;13.10;;;;;;;15.86;88.07;98933.67;1809761;79;21009;-69
2021/05/19 04:40:46;;;;;;;14.20;12.80;;;;;;;15.93;87.72;98931.23;1797006;79;21177;-70
2021/05/19 04:43:13;;;;;;;15.63;13.17;;;;;;;16.00;87.46;98938.77;1800725;75;20979;-67
2021/05/19 04:45:41;;;;;;;12.67;11.43;;;;;;;16.12;87.32;98940.69;1796723;79;20912;-68
2021/05/19 04:48:07;;;;;;;13.93;12.43;;;;;;;16.24;86.91;98935.34;1798787;79;20984;-69
2021/05/19 04:50:37;;;;;;;13.83;10.87;;;;;;;16.38;86.71;98933.66;1805904;79;21439;-69
2021/05/19 04:53:04;;;;;;;12.43;11.13;;;;;;;16.50;86.09;98935.03;1795060;77;21672;-70
2021/05/19 04:55:30;;;;;;;12.07;10.77;;;;;;;16.56;85.50;98929.66;1796915;79;21075;-69
2021/05/19 04:57:58;;;;;;;11.50;10.30;;;;;;;16.66;84.88;98929.77;1786234;79;21178;-69
2021/05/19 05:00:27;;;;;;;11.80;10.53;;;;;;;16.74;84.22;98927.51;1784944;80;21127;-69
2021/05/19 05:02:53;;;;;;;11.83;10.57;;;;;;;16.76;83.18;98929.91;1791466;77;21398;-69
2021/05/19 05:05:20;;;;;;;10.67;9.57;;;;;;;16.72;82.78;98930.34;1805784;79;21048;-69
2021/05/19 05:07:47;;;;;;;11.70;10.00;;;;;;;16.71;82.43;98932.79;1797048;79;21121;-70
2021/05/19 05:10:13;;;;;;;11.97;9.90;;;;;;;16.74;82.16;98934.81;1784774;79;21091;-70
2021/05/19 05:12:40;;;;;;;11.17;10.07;;;;;;;16.80;82.04;98937.55;1788811;79;21075;-70
2021/05/19 05:15:14;;;;;;;11.20;9.93;;;;;;;16.88;81.65;98938.01;1795196;79;21085;-70
2021/05/19 05:17:41;;;;;;;10.60;9.57;;;;;;;17.00;81.59;98935.84;1805097;79;21035;-70
2021/05/19 05:20:10;;;;;;;11.57;10.40;;;;;;;17.14;81.44;98939.53;1782727;78;21649;-69
2021/05/19 05:22:38;;;;;;;11.27;10.10;;;;;;;17.28;81.04;98941.32;1787901;77;21564;-70
2021/05/19 05:25:06;;;;;;;12.67;11.43;;;;;;;17.32;80.47;98936.23;1765276;79;21664;-69
2021/05/19 05:27:34;;;;;;;15.63;14.03;;;;;;;17.26;80.41;98942.99;1798532;79;21637;-70
2021/05/19 05:30:00;;;;;;;16.33;13.97;;;;;;;17.25;80.62;98944.13;1794702;79;21079;-69
2021/05/19 05:32:27;;;;;;;15.23;13.70;;;;;;;17.26;80.79;98943.56;1793994;77;21114;-68
2021/05/19 05:34:53;;;;;;;14.00;12.53;;;;;;;17.28;80.94;98939.41;1793864;79;21652;-70
2021/05/19 05:37:22;;;;;;;13.07;11.67;;;;;;;17.39;80.51;98941.63;1794844;79;21027;-71
2021/05/19 05:39:58;;;;;;;12.43;11.13;;;;;;;17.46;79.99;98945.88;1784888;79;21509;-70
2021/05/19 05:42:28;;;;;;;12.63;10.70;;;;;;;17.52;79.44;98941.81;1788589;77;21162;-70
2021/05/19 05:44:55;;;;;;;12.23;10.40;;;;;;;17.64;78.85;98943.13;1799746;79;21104;-71
2021/05/19 05:47:22;;;;;;;10.50;9.40;;;;;;;17.71;78.23;98942.54;1784293;79;21162;-69
2021/05/19 05:49:51;;;;;;;10.27;8.83;;;;;;;17.77;78.02;98947.38;1783841;80;21059;-70
2021/05/19 05:52:18;;;;;;;9.20;7.73;;;;;;;17.89;77.56;98944.39;1791194;79;21317;-70
2021/05/19 05:54:45;;;;;;;6.23;4.67;;;;;;;18.04;77.14;98936.90;1797581;77;21063;-71
2021/05/19 05:57:11;;;;;;;6.53;5.13;;;;;;;18.21;76.44;98931.16;1805716;79;21649;-71
2021/05/19 05:59:38;;;;;;;6.60;5.83;;;;;;;18.35;75.32;98929.38;1807539;79;21079;-69
2021/05/19 06:02:04;;;;;;;6.67;6.07;;;;;;;18.44;74.14;98928.64;1790100;79;21092;-69
2021/05/19 06:04:31;;;;;;;6.33;4.60;;;;;;;18.44;73.00;98934.05;1793554;79;21075;-70
2021/05/19 06:06:57;;;;;;;5.53;4.30;;;;;;;18.47;72.24;98935.28;1795572;79;21134;-71
2021/05/19 06:09:25;;;;;;;5.70;4.10;;;;;;;18.51;71.94;98936.14;1791471;79;21656;-72
2021/05/19 06:11:53;;;;;;;6.50;4.33;;;;;;;18.61;71.75;98936.19;1790706;79;21044;-71
2021/05/19 06:14:20;;;;;;;6.33;4.70;;;;;;;18.71;70.86;98941.84;1799058;77;21032;-72
2021/05/19 06:16:50;;;;;;;5.37;4.87;;;;;;;18.81;70.17;98950.59;1799348;79;21138;-71
2021/05/19 06:19:19;;;;;;;5.63;4.70;;;;;;;18.89;69.54;98950.99;1790434;77;21645;-73
2021/05/19 06:21:47;;;;;;;5.47;4.50;;;;;;;18.97;68.75;98960.25;1791954;79;21052;-71
2021/05/19 06:24:14;;;;;;;6.53;4.73;;;;;;;19.12;68.78;98974.13;1791305;79;21103;-72
2021/05/19 06:26:41;;;;;;;4.60;4.07;;;;;;;19.22;68.77;98973.58;1799615;79;21083;-72
2021/05/19 06:29:08;;;;;;;5.53;4.70;;;;;;;19.28;68.83;98980.83;1809458;79;21079;-73
2021/05/19 06:31:35;;;;;;;5.17;4.50;;;;;;;19.27;68.19;98975.99;1787773;79;21119;-72
2021/05/19 06:34:02;;;;;;;6.40;4.30;;;;;;;19.25;67.56;98982.34;1791968;79;21094;-73
2021/05/19 06:36:28;;;;;;;6.60;4.23;;;;;;;19.30;67.18;98981.27;1798107;79;21087;-72
2021/05/19 06:38:55;;;;;;;6.60;3.90;;;;;;;19.32;66.52;98985.20;1804202;79;20995;-68
2021/05/19 06:41:21;;;;;;;5.10;3.17;;;;;;;19.37;66.31;98989.55;1784696;79;21067;-69
2021/05/19 06:43:49;;;;;;;4.90;3.30;;;;;;;19.41;65.72;98993.92;1798977;77;21590;-68
2021/05/19 06:46:17;;;;;;;4.13;2.80;;;;;;;19.35;65.57;99002.09;1796646;79;21047;-70
2021/05/19 06:48:44;;;;;;;4.43;3.03;;;;;;;19.45;65.87;98997.48;1799687;79;21083;-69
2021/05/19 06:51:11;;;;;;;3.37;2.60;;;;;;;19.61;64.89;99002.04;1795136;79;21063;-69
2021/05/19 06:53:39;;;;;;;4.37;3.03;;;;;;;19.72;64.31;98998.25;1799120;79;21035;-69
2021/05/19 06:56:07;;;;;;;4.13;2.97;;;;;;;19.88;63.78;99002.45;1793917;77;21205;-73
2021/05/19 06:58:34;;;;;;;4.00;2.70;;;;;;;20.10;63.67;99000.14;1796326;79;21075;-72
2021/05/19 07:01:01;;;;;;;3.10;2.17;;;;;;;20.34;63.46;99007.98;1789866;79;21070;-72
2021/05/19 07:03:28;;;;;;;3.50;2.27;;;;;;;20.56;62.18;99011.08;1789761;77;21095;-70
2021/05/19 07:05:55;;;;;;;2.97;1.80;;;;;;;20.71;61.83;99008.83;1792284;79;21095;-71
2021/05/19 07:08:22;;;;;;;2.90;1.80;;;;;;;20.87;61.34;99011.42;1803620;79;21099;-70
2021/05/19 07:10:48;;;;;;;2.70;1.40;;;;;;;20.96;59.92;99015.22;1789500;79;21396;-71
2021/05/19 07:13:18;;;;;;;3.27;1.60;;;;;;;20.90;59.88;99008.55;1784426;79;21593;-71
2021/05/19 07:15:46;;;;;;;2.87;1.50;;;;;;;20.95;59.71;99015.80;1794934;79;21108;-70
2021/05/19 07:18:15;;;;;;;2.50;1.40;;;;;;;21.02;59.41;99012.41;1791838;79;21437;-72
2021/05/19 07:20:41;;;;;;;2.60;1.40;;;;;;;21.08;58.41;99015.03;1799775;78;21680;-73
2021/05/19 07:23:07;;;;;;;2.93;1.30;;;;;;;21.17;58.49;99014.78;1800409;79;21047;-72
2021/05/19 07:25:35;;;;;;;2.20;1.33;;;;;;;21.30;57.84;99020.98;1789582;77;21071;-72
2021/05/19 07:28:04;;;;;;;1.90;1.20;;;;;;;21.51;56.56;99018.39;1789408;79;21593;-71
2021/05/19 07:30:31;;;;;;;2.17;1.40;;;;;;;21.66;55.81;99026.17;1786842;79;21123;-72
2021/05/19 07:32:57;;;;;;;1.90;1.30;;;;;;;21.71;56.01;99018.45;1792547;79;21122;-71
2021/05/19 07:35:24;;;;;;;2.93;1.50;;;;;;;21.69;55.24;99020.00;1804656;77;21661;-73
2021/05/19 07:37:54;;;;;;;2.47;1.30;;;;;;;21.73;55.22;99019.46;1775091;77;22357;-73
2021/05/19 07:40:22;;;;;;;4.50;1.27;;;;;;;21.87;55.03;99020.20;1792620;77;21103;-73
2021/05/19 07:43:00;;;;;;;2.13;1.20;;;;;;;21.93;53.97;99028.25;1799825;77;21135;-74
2021/05/19 07:45:27;;;;;;;2.97;1.20;;;;;;;21.98;54.07;99025.19;1791972;77;21134;-73
2021/05/19 07:47:54;;;;;;;2.53;1.03;;;;;;;21.91;53.32;99031.90;1793484;79;21655;-74
2021/05/19 07:50:21;;;;;;;1.47;1.10;;;;;;;21.78;54.34;99025.91;1797823;79;21086;-74
2021/05/19 07:52:48;;;;;;;3.30;1.30;;;;;;;21.84;53.86;99032.59;1790778;79;21059;-73
2021/05/19 08:00:20;;;;;;;3.47;1.40;;;;;;;22.04;53.20;99028.36;1814197;79;21521;-74
2021/05/19 08:02:44;;;;;;;3.07;1.33;;;;;;;22.00;53.18;99029.10;1793246;79;21676;-72
2021/05/19 08:05:12;;;;;;;4.17;1.43;;;;;;;22.02;53.24;99034.19;1791151;79;21047;-73
2021/05/19 08:07:39;;;;;;;2.27;1.40;;;;;;;22.05;53.47;99033.45;1799173;79;21670;-74
2021/05/19 08:10:07;;;;;;;4.17;1.47;;;;;;;21.97;52.62;99039.94;1800377;79;21872;-73
2021/05/19 08:12:34;;;;;;;4.07;1.47;;;;;;;21.88;53.13;99040.23;1797578;79;21629;-72
2021/05/19 08:15:01;;;;;;;3.80;1.30;;;;;;;21.90;53.49;99042.58;1789071;79;21051;-73
2021/05/19 08:17:28;;;;;;;2.60;1.33;;;;;;;21.99;52.64;99045.22;1791451;79;21074;-74
2021/05/19 08:19:55;;;;;;;2.27;1.00;;;;;;;22.09;52.33;99044.36;1791130;79;21177;-74
2021/05/19 08:22:22;;;;;;;1.30;1.10;;;;;;;22.13;52.22;99045.95;1796175;77;21102;-73
2021/05/19 08:24:49;;;;;;;2.40;1.10;;;;;;;22.14;51.64;99052.95;1785610;79;21100;-74
2021/05/19 08:27:15;;;;;;;1.93;1.00;;;;;;;22.15;51.28;99051.04;1795224;77;21581;-73
2021/05/19 08:29:43;;;;;;;1.57;1.00;;;;;;;22.11;51.16;99045.56;1793283;79;21116;-75
2021/05/19 08:32:10;;;;;;;2.93;1.00;;;;;;;22.09;50.48;99045.14;1788650;79;21497;-73
2021/05/19 08:34:36;;;;;;;2.93;1.20;;;;;;;22.06;50.35;99039.08;1793935;79;21150;-75
2021/05/19 08:37:04;;;;;;;3.57;1.27;;;;;;;22.06;50.69;99053.26;1799857;79;21613;-73
2021/05/19 08:39:31;;;;;;;4.43;1.10;;;;;;;22.09;51.12;99051.94;1795009;79;21071;-74
2021/05/19 08:41:58;;;;;;;2.43;1.20;;;;;;;22.15;50.81;99050.48;1801347;79;20988;-74
2021/05/19 08:44:24;;;;;;;4.10;1.10;;;;;;;22.18;51.11;99052.47;1805665;79;21636;-74
2021/05/19 08:46:55;;;;;;;2.20;1.00;;;;;;;22.17;50.80;99059.62;1789569;79;22563;-73
2021/05/19 08:49:21;;;;;;;1.83;1.00;;;;;;;22.21;50.67;99051.73;1797440;78;20960;-75
2021/05/19 08:51:48;;;;;;;1.77;0.80;;;;;;;22.24;49.86;99056.98;1787382;79;21225;-72
2021/05/19 08:54:17;;;;;;;3.40;0.90;;;;;;;22.21;49.70;99051.73;1798711;77;21120;-74
2021/05/19 08:56:46;;;;;;;2.97;0.97;;;;;;;22.22;49.55;99057.94;1802131;77;21077;-74
2021/05/19 08:59:13;;;;;;;1.43;0.80;;;;;;;22.26;49.72;99058.76;1797405;79;21000;-73
2021/05/19 09:01:45;;;;;;;1.43;0.83;;;;;;;22.31;50.27;99062.52;1808843;79;21172;-72
2021/05/19 09:04:22;;;;;;;1.82;0.90;;;;;;;22.19;49.77;99071.70;1788572;79;21031;-74
2021/05/19 09:07:01;;;;;;;2.60;1.07;;;;;;;22.22;49.64;99061.44;1809407;77;21110;-74
2021/05/19 09:09:38;;;;;;;;;;;;;;;22.32;49.35;99063.30;1799768;79;21559;-72
2021/05/19 09:12:08;;;;;;;3.30;1.00;;;;;;;22.44;49.07;99065.73;1784859;79;20287;-73
2021/05/19 09:14:38;;;;;;;4.33;1.60;;;;;;;22.54;49.13;99066.45;1787873;79;21089;-74
2021/05/19 09:17:26;;;;;;;2.73;1.40;;;;;;;22.63;49.04;99060.69;1790192;77;21601;-74
2021/05/19 09:20:07;;;;;;;3.70;1.23;;;;;;;22.69;48.65;99055.89;1778963;77;21155;-73
2021/05/19 09:22:40;;;;;;;2.53;1.40;;;;;;;22.73;48.22;99048.34;1788895;79;21071;-74
2021/05/19 09:25:26;;;;;;;4.73;1.40;;;;;;;22.79;48.12;99043.54;1790940;77;21052;-75
2021/05/19 09:27:57;;;;;;;3.30;1.40;;;;;;;22.90;47.74;99043.06;1794052;77;21114;-74
2021/05/19 09:30:43;;;;;;;3.97;1.30;;;;;;;23.00;46.65;99040.81;1796624;79;21170;-73
2021/05/19 09:33:23;;;;;;;4.47;1.07;;;;;;;23.01;46.61;99033.64;1747840;79;21071;-73
2021/05/19 09:36:19;;;;;;;2.50;1.17;;;;;;;23.01;47.00;99039.67;1795027;79;21777;-74
2021/05/19 09:38:41;;;;;;;3.47;1.27;;;;;;;22.87;45.91;99035.65;1789565;79;21091;-74
2021/05/19 09:41:25;;;;;;;3.50;0.83;;;;;;;22.61;46.61;99040.67;1787135;77;21040;-73
2021/05/19 09:43:58;;;;;;;3.30;0.80;;;;;;;22.51;47.47;99037.27;1792163;77;21115;-75
2021/05/19 09:49:24;;;;;;;3.40;1.00;;;;;;;22.42;48.00;99043.58;1790886;77;21059;-73
2021/05/19 09:51:53;;;;;;;3.80;1.10;;;;;;;22.54;48.46;99042.52;1784581;77;20961;-74
2021/05/19 09:54:35;;;;;;;3.87;1.10;;;;;;;22.65;48.35;99046.14;1799809;79;21135;-74
2021/05/19 09:57:09;;;;;;;1.30;0.80;;;;;;;22.77;48.44;99045.06;1794545;79;21146;-74
2021/05/19 09:59:41;;;;;;;2.33;1.00;;;;;;;22.86;47.83;99046.90;1798938;77;21067;-73
2021/05/19 10:02:09;;;;;;;1.47;0.93;;;;;;;22.87;47.63;99041.68;1778550;79;21057;-73
2021/05/19 10:04:46;;;;;;;2.50;0.80;;;;;;;22.80;47.32;99042.95;1792991;79;21127;-75
2021/05/19 10:07:13;;;;;;;2.80;0.90;;;;;;;22.71;48.34;99043.28;1788965;79;21121;-72
2021/05/19 10:09:39;;;;;;;2.67;0.90;;;;;;;22.60;48.64;99049.97;1790888;77;21102;-76
2021/05/19 10:12:08;;;;;;;2.17;0.90;;;;;;;22.65;47.97;99051.00;1797986;77;21060;-76
2021/05/19 10:14:36;;;;;;;3.43;1.40;;;;;;;22.70;48.12;99045.23;1795984;79;21139;-76
2021/05/19 10:17:10;;;;;;;3.37;1.17;;;;;;;22.58;48.17;99047.44;1788428;79;21103;-74
2021/05/19 10:19:40;;;;;;;1.57;0.80;;;;;;;22.68;48.16;99048.89;1792763;77;21613;-75
2021/05/19 10:22:12;;;;;;;2.10;0.80;;;;;;;22.84;47.05;99051.95;1790121;77;21122;-74
2021/05/19 10:24:58;;;;;;;1.90;0.70;;;;;;;23.03;47.12;99056.40;1793299;77;21091;-75
2021/05/19 10:27:22;;;;;;;2.50;0.90;;;;;;;23.23;47.07;99054.21;1791138;79;21170;-76
2021/05/19 10:29:57;;;;;;;0.93;0.60;;;;;;;23.33;46.87;99054.86;1793014;79;21119;-74
2021/05/19 10:32:29;;;;;;;1.40;0.70;;;;;;;23.45;46.72;99055.92;1793455;79;21123;-72
2021/05/19 10:34:57;;;;;;;0.97;0.70;;;;;;;23.53;45.32;99056.18;1791907;79;21617;-74
2021/05/19 10:37:35;;;;;;;2.20;0.90;;;;;;;23.53;44.49;99060.27;1797497;79;21162;-74
2021/05/19 10:40:19;;;;;;;1.33;0.80;;;;;;;23.48;45.62;99061.98;1793451;79;21087;-74
2021/05/19 10:42:58;;;;;;;1.80;0.80;;;;;;;23.51;46.02;99055.77;1791726;79;21070;-73
2021/05/19 10:45:25;;;;;;;2.00;0.93;;;;;;;23.55;46.19;99057.92;1794196;79;21099;-73
2021/05/19 10:47:52;;;;;;;2.80;1.00;;;;;;;23.49;45.75;99063.53;1800789;79;21621;-72
2021/05/19 10:50:32;;;;;;;1.47;0.80;;;;;;;23.37;46.16;99058.41;1790871;79;21070;-73
2021/05/19 10:58:49;;;;;;;1.03;0.73;;;;;;;23.50;44.86;99065.11;1791963;79;21004;-76
2021/05/19 11:01:13;;;;;;;2.00;0.70;;;;;;;23.59;44.96;99066.93;1789797;79;21051;-72
2021/05/19 11:03:42;;;;;;;1.67;0.80;;;;;;;23.71;44.69;99059.61;1801402;79;21486;-73
2021/05/19 11:06:11;;;;;;;2.20;0.97;;;;;;;23.83;44.53;99055.20;1772045;79;21091;-72
2021/05/19 11:08:38;;;;;;;1.80;1.00;;;;;;;23.78;43.95;99056.91;1796426;79;21158;-72
2021/05/19 11:11:18;;;;;;;1.73;0.70;;;;;;;23.75;44.28;99050.86;1796876;77;20962;-73
2021/05/19 11:14:13;;;;;;;3.13;0.87;;;;;;;23.84;45.14;99059.48;1793112;77;21578;-75
2021/05/19 11:16:57;;;;;;;1.40;0.70;;;;;;;24.09;44.81;99058.23;1790385;79;21060;-73
2021/05/19 11:19:31;;;;;;;2.70;0.80;;;;;;;24.27;43.19;99056.91;1783826;79;21836;-73
2021/05/19 11:22:13;;;;;;;0.90;0.60;;;;;;;24.34;43.05;99054.97;1775456;79;21022;-73
2021/05/19 11:24:57;;;;;;;1.90;0.77;;;;;;;24.38;43.54;99060.44;1795172;79;20916;-74
2021/05/19 11:27:26;;;;;;;2.47;0.90;;;;;;;24.26;44.20;99067.64;1794603;79;21007;-72
2021/05/19 11:29:54;;;;;;;1.60;0.80;;;;;;;24.13;44.84;99062.33;1799253;79;21028;-70
2021/05/19 11:32:29;;;;;;;2.70;1.00;;;;;;;23.94;45.48;99062.83;1792774;79;21642;-72
2021/05/19 11:35:18;;;;;;;2.77;0.90;;;;;;;23.61;46.30;99071.98;1783577;79;21783;-71
2021/05/19 11:38:01;;;;;;;1.40;0.90;;;;;;;23.29;46.79;99071.77;1785432;79;20960;-72
2021/05/19 11:40:49;;;;;;;3.13;1.30;;;;;;;23.08;48.09;99073.18;1802173;77;22388;-71
2021/05/19 11:43:16;;;;;;;2.73;1.30;;;;;;;23.10;48.71;99075.52;1774458;79;21075;-72
2021/05/19 11:45:48;;;;;;;1.53;1.00;;;;;;;23.16;48.54;99073.45;1798661;79;21053;-72
2021/05/19 11:48:26;;;;;;;2.13;1.00;;;;;;;23.30;47.54;99067.91;1794897;79;21597;-72
2021/05/19 11:50:54;;;;;;;2.23;1.27;;;;;;;23.38;47.73;99062.11;1802442;77;21122;-71
2021/05/19 11:53:21;;;;;;;2.10;1.00;;;;;;;23.29;47.02;99058.92;1794509;79;21044;-72
2021/05/19 11:55:55;;;;;;;3.50;1.10;;;;;;;22.98;47.92;99062.20;1798228;79;21164;-70
2021/05/19 11:58:36;;;;;;;2.77;1.10;;;;;;;22.64;48.69;99055.47;1805287;79;21100;-72
2021/05/19 12:01:05;;;;;;;3.00;1.23;;;;;;;22.40;48.62;99062.20;1795582;77;21116;-72
2021/05/19 12:03:35;;;;;;;3.03;1.20;;;;;;;22.28;49.82;99060.55;1791118;79;21075;-72
2021/05/19 12:06:08;;;;;;;3.43;1.37;;;;;;;22.09;50.48;99064.17;1794762;79;21056;-72